sensor_id;sensor_type;location;lat;lon;timestamp;temperature;humidity
21495;DHT22;10909;53.590;10.054;2022-12-29T00:02:14;11.40;86.10
21495;DHT22;10909;53.590;10.054;2022-12-29T00:04:40;11.40;86.10
21495;DHT22;10909;53.590;10.054;2022-12-29T00:07:06;11.40;86.00
21495;DHT22;10909;53.590;10.054;2022-12-29T00:09:33;11.50;86.00
21495;DHT22;10909;53.590;10.054;2022-12-29T00:11:59;11.50;86.00
21495;DHT22;10909;53.590;10.054;2022-12-29T00:14:26;11.50;86.00
21495;DHT22;10909;53.590;10.054;2022-12-29T00:17:10;11.50;86.00
21495;DHT22;10909;53.590;10.054;2022-12-29T00:19:36;11.60;86.00
21495;DHT22;10909;53.590;10.054;2022-12-29T00:22:20;11.60;86.00
21495;DHT22;10909;53.590;10.054;2022-12-29T00:25:05;11.60;86.00
21495;DHT22;10909;53.590;10.054;2022-12-29T00:27:49;11.70;86.80
21495;DHT22;10909;53.590;10.054;2022-12-29T00:30:34;11.70;85.90
21495;DHT22;10909;53.590;10.054;2022-12-29T00:33:20;11.70;85.80
21495;DHT22;10909;53.590;10.054;2022-12-29T00:38:49;11.80;85.90
21495;DHT22;10909;53.590;10.054;2022-12-29T00:41:35;11.80;85.80
21495;DHT22;10909;53.590;10.054;2022-12-29T00:44:20;11.80;85.80
21495;DHT22;10909;53.590;10.054;2022-12-29T00:46:47;11.80;85.70
21495;DHT22;10909;53.590;10.054;2022-12-29T00:49:14;11.90;85.80
21495;DHT22;10909;53.590;10.054;2022-12-29T00:52:03;11.90;85.80
21495;DHT22;10909;53.590;10.054;2022-12-29T00:54:35;11.90;85.70
21495;DHT22;10909;53.590;10.054;2022-12-29T00:57:02;11.90;85.70
21495;DHT22;10909;53.590;10.054;2022-12-29T00:59:28;11.90;85.70
21495;DHT22;10909;53.590;10.054;2022-12-29T01:01:54;12.00;85.70
21495;DHT22;10909;53.590;10.054;2022-12-29T01:04:25;12.00;85.60
21495;DHT22;10909;53.590;10.054;2022-12-29T01:06:51;12.00;85.50
21495;DHT22;10909;53.590;10.054;2022-12-29T01:09:17;12.00;85.40
21495;DHT22;10909;53.590;10.054;2022-12-29T01:12:02;12.00;85.40
21495;DHT22;10909;53.590;10.054;2022-12-29T01:14:28;12.00;85.30
21495;DHT22;10909;53.590;10.054;2022-12-29T01:16:55;12.00;85.40
21495;DHT22;10909;53.590;10.054;2022-12-29T01:19:21;12.10;85.50
21495;DHT22;10909;53.590;10.054;2022-12-29T01:21:47;12.10;85.50
21495;DHT22;10909;53.590;10.054;2022-12-29T01:24:14;12.10;85.50
21495;DHT22;10909;53.590;10.054;2022-12-29T01:26:40;12.10;85.50
21495;DHT22;10909;53.590;10.054;2022-12-29T01:29:06;12.10;85.40
21495;DHT22;10909;53.590;10.054;2022-12-29T01:31:32;12.10;85.40
21495;DHT22;10909;53.590;10.054;2022-12-29T01:33:57;12.20;85.50
21495;DHT22;10909;53.590;10.054;2022-12-29T01:36:24;12.20;85.50
21495;DHT22;10909;53.590;10.054;2022-12-29T01:38:50;12.20;85.50
21495;DHT22;10909;53.590;10.054;2022-12-29T01:41:16;12.20;85.50
21495;DHT22;10909;53.590;10.054;2022-12-29T01:43:47;12.20;85.40
21495;DHT22;10909;53.590;10.054;2022-12-29T01:46:25;12.20;85.30
21495;DHT22;10909;53.590;10.054;2022-12-29T01:49:04;12.30;85.40
21495;DHT22;10909;53.590;10.054;2022-12-29T01:51:45;12.30;85.30
21495;DHT22;10909;53.590;10.054;2022-12-29T01:54:18;12.30;85.30
21495;DHT22;10909;53.590;10.054;2022-12-29T01:56:48;12.30;85.30
21495;DHT22;10909;53.590;10.054;2022-12-29T01:59:22;12.30;85.40
21495;DHT22;10909;53.590;10.054;2022-12-29T02:01:50;12.30;85.30
21495;DHT22;10909;53.590;10.054;2022-12-29T02:04:17;12.30;85.30
21495;DHT22;10909;53.590;10.054;2022-12-29T02:06:55;12.30;85.30
21495;DHT22;10909;53.590;10.054;2022-12-29T02:09:23;12.30;85.40
21495;DHT22;10909;53.590;10.054;2022-12-29T02:11:49;12.30;85.40
21495;DHT22;10909;53.590;10.054;2022-12-29T02:14:15;12.30;85.40
21495;DHT22;10909;53.590;10.054;2022-12-29T02:30:37;12.30;85.50
21495;DHT22;10909;53.590;10.054;2022-12-29T02:33:28;12.30;85.50
21495;DHT22;10909;53.590;10.054;2022-12-29T02:38:46;12.30;85.70
21495;DHT22;10909;53.590;10.054;2022-12-29T02:47:04;12.30;85.50
21495;DHT22;10909;53.590;10.054;2022-12-29T02:52:25;12.30;85.70
21495;DHT22;10909;53.590;10.054;2022-12-29T02:54:54;12.30;85.60
21495;DHT22;10909;53.590;10.054;2022-12-29T02:59:55;12.30;85.60
21495;DHT22;10909;53.590;10.054;2022-12-29T03:05:12;12.30;85.70
21495;DHT22;10909;53.590;10.054;2022-12-29T03:12:56;12.30;85.70
21495;DHT22;10909;53.590;10.054;2022-12-29T03:16:21;12.30;85.70
21495;DHT22;10909;53.590;10.054;2022-12-29T03:19:10;12.30;85.50
21495;DHT22;10909;53.590;10.054;2022-12-29T03:21:43;12.30;85.60
21495;DHT22;10909;53.590;10.054;2022-12-29T03:24:30;12.30;85.60
21495;DHT22;10909;53.590;10.054;2022-12-29T03:26:59;12.30;85.50
21495;DHT22;10909;53.590;10.054;2022-12-29T03:29:29;12.30;85.50
21495;DHT22;10909;53.590;10.054;2022-12-29T03:31:56;12.30;85.70
21495;DHT22;10909;53.590;10.054;2022-12-29T03:34:24;12.40;85.70
21495;DHT22;10909;53.590;10.054;2022-12-29T03:37:00;12.40;85.70
21495;DHT22;10909;53.590;10.054;2022-12-29T03:39:28;12.40;85.60
21495;DHT22;10909;53.590;10.054;2022-12-29T03:41:59;12.40;85.60
21495;DHT22;10909;53.590;10.054;2022-12-29T03:44:37;12.40;85.60
21495;DHT22;10909;53.590;10.054;2022-12-29T03:47:05;12.40;85.60
21495;DHT22;10909;53.590;10.054;2022-12-29T03:49:30;12.40;85.50
21495;DHT22;10909;53.590;10.054;2022-12-29T03:51:56;12.30;85.60
21495;DHT22;10909;53.590;10.054;2022-12-29T03:54:22;12.40;85.70
21495;DHT22;10909;53.590;10.054;2022-12-29T03:56:47;12.40;85.50
21495;DHT22;10909;53.590;10.054;2022-12-29T03:59:13;12.50;85.60
21495;DHT22;10909;53.590;10.054;2022-12-29T04:01:39;12.50;85.60
21495;DHT22;10909;53.590;10.054;2022-12-29T04:04:04;12.50;85.50
21495;DHT22;10909;53.590;10.054;2022-12-29T04:06:30;12.50;85.50
21495;DHT22;10909;53.590;10.054;2022-12-29T04:08:56;12.50;85.50
21495;DHT22;10909;53.590;10.054;2022-12-29T04:11:22;12.50;85.30
21495;DHT22;10909;53.590;10.054;2022-12-29T04:13:48;12.50;85.20
21495;DHT22;10909;53.590;10.054;2022-12-29T04:16:14;12.60;85.40
21495;DHT22;10909;53.590;10.054;2022-12-29T04:18:40;12.60;85.40
21495;DHT22;10909;53.590;10.054;2022-12-29T04:21:06;12.60;85.20
21495;DHT22;10909;53.590;10.054;2022-12-29T04:23:34;12.60;85.10
21495;DHT22;10909;53.590;10.054;2022-12-29T04:26:03;12.60;85.00
21495;DHT22;10909;53.590;10.054;2022-12-29T04:28:30;12.60;85.00
21495;DHT22;10909;53.590;10.054;2022-12-29T04:30:55;12.60;85.10
21495;DHT22;10909;53.590;10.054;2022-12-29T04:33:21;12.60;85.00
21495;DHT22;10909;53.590;10.054;2022-12-29T04:35:48;12.60;85.10
21495;DHT22;10909;53.590;10.054;2022-12-29T04:38:14;12.60;85.20
21495;DHT22;10909;53.590;10.054;2022-12-29T04:40:43;12.60;85.10
21495;DHT22;10909;53.590;10.054;2022-12-29T04:43:10;12.60;85.00
21495;DHT22;10909;53.590;10.054;2022-12-29T04:45:36;12.60;85.10
21495;DHT22;10909;53.590;10.054;2022-12-29T04:48:02;12.60;85.80
21495;DHT22;10909;53.590;10.054;2022-12-29T04:50:28;12.60;85.10
21495;DHT22;10909;53.590;10.054;2022-12-29T04:52:54;12.60;85.00
21495;DHT22;10909;53.590;10.054;2022-12-29T04:55:20;12.60;85.00
21495;DHT22;10909;53.590;10.054;2022-12-29T04:57:46;12.50;85.10
21495;DHT22;10909;53.590;10.054;2022-12-29T05:00:12;12.60;85.10
21495;DHT22;10909;53.590;10.054;2022-12-29T05:02:39;12.60;85.00
21495;DHT22;10909;53.590;10.054;2022-12-29T05:05:05;12.50;85.00
21495;DHT22;10909;53.590;10.054;2022-12-29T05:07:31;12.50;85.10
21495;DHT22;10909;53.590;10.054;2022-12-29T05:09:59;12.50;85.20
21495;DHT22;10909;53.590;10.054;2022-12-29T05:12:24;12.50;85.20
21495;DHT22;10909;53.590;10.054;2022-12-29T05:14:50;12.60;85.30
21495;DHT22;10909;53.590;10.054;2022-12-29T05:17:15;12.60;85.30
21495;DHT22;10909;53.590;10.054;2022-12-29T05:19:41;12.60;85.20
21495;DHT22;10909;53.590;10.054;2022-12-29T05:22:07;12.60;85.20
21495;DHT22;10909;53.590;10.054;2022-12-29T05:24:32;12.60;85.30
21495;DHT22;10909;53.590;10.054;2022-12-29T05:26:58;12.50;85.30
21495;DHT22;10909;53.590;10.054;2022-12-29T05:29:24;12.60;85.50
21495;DHT22;10909;53.590;10.054;2022-12-29T05:31:49;12.60;85.70
21495;DHT22;10909;53.590;10.054;2022-12-29T05:34:15;12.60;86.60
21495;DHT22;10909;53.590;10.054;2022-12-29T05:36:41;12.60;86.00
21495;DHT22;10909;53.590;10.054;2022-12-29T05:39:06;12.60;86.10
21495;DHT22;10909;53.590;10.054;2022-12-29T05:41:33;12.60;86.10
21495;DHT22;10909;53.590;10.054;2022-12-29T05:44:00;12.70;86.20
21495;DHT22;10909;53.590;10.054;2022-12-29T05:46:26;12.70;86.30
21495;DHT22;10909;53.590;10.054;2022-12-29T05:48:52;12.70;86.40
21495;DHT22;10909;53.590;10.054;2022-12-29T05:51:17;12.80;86.60
21495;DHT22;10909;53.590;10.054;2022-12-29T05:53:43;12.80;86.80
21495;DHT22;10909;53.590;10.054;2022-12-29T05:56:09;12.80;86.80
21495;DHT22;10909;53.590;10.054;2022-12-29T05:58:34;12.90;87.00
21495;DHT22;10909;53.590;10.054;2022-12-29T06:01:07;12.90;86.90
21495;DHT22;10909;53.590;10.054;2022-12-29T06:03:36;13.00;86.80
21495;DHT22;10909;53.590;10.054;2022-12-29T06:06:02;13.10;86.70
21495;DHT22;10909;53.590;10.054;2022-12-29T06:08:32;13.10;86.40
21495;DHT22;10909;53.590;10.054;2022-12-29T06:10:58;13.20;86.30
21495;DHT22;10909;53.590;10.054;2022-12-29T06:13:24;13.20;86.10
21495;DHT22;10909;53.590;10.054;2022-12-29T06:15:50;13.30;86.00
21495;DHT22;10909;53.590;10.054;2022-12-29T06:18:16;13.30;85.60
21495;DHT22;10909;53.590;10.054;2022-12-29T06:20:42;13.30;85.60
21495;DHT22;10909;53.590;10.054;2022-12-29T06:23:08;13.30;85.30
21495;DHT22;10909;53.590;10.054;2022-12-29T06:25:34;13.40;85.30
21495;DHT22;10909;53.590;10.054;2022-12-29T06:28:01;13.40;85.10
21495;DHT22;10909;53.590;10.054;2022-12-29T06:30:27;13.40;84.70
21495;DHT22;10909;53.590;10.054;2022-12-29T06:32:52;13.50;84.40
21495;DHT22;10909;53.590;10.054;2022-12-29T06:35:20;13.40;84.10
21495;DHT22;10909;53.590;10.054;2022-12-29T06:37:47;13.40;83.90
21495;DHT22;10909;53.590;10.054;2022-12-29T06:40:13;13.40;83.90
21495;DHT22;10909;53.590;10.054;2022-12-29T06:42:39;13.40;84.00
21495;DHT22;10909;53.590;10.054;2022-12-29T06:45:05;13.30;83.90
21495;DHT22;10909;53.590;10.054;2022-12-29T06:47:31;13.30;83.80
21495;DHT22;10909;53.590;10.054;2022-12-29T06:49:57;13.30;83.70
21495;DHT22;10909;53.590;10.054;2022-12-29T06:52:22;13.20;83.70
21495;DHT22;10909;53.590;10.054;2022-12-29T06:54:49;13.20;83.80
21495;DHT22;10909;53.590;10.054;2022-12-29T06:57:15;13.20;84.00
21495;DHT22;10909;53.590;10.054;2022-12-29T06:59:41;13.10;84.00
21495;DHT22;10909;53.590;10.054;2022-12-29T07:02:06;13.10;84.10
21495;DHT22;10909;53.590;10.054;2022-12-29T07:04:36;13.10;84.10
21495;DHT22;10909;53.590;10.054;2022-12-29T07:07:03;13.10;84.60
21495;DHT22;10909;53.590;10.054;2022-12-29T07:09:28;13.10;84.30
21495;DHT22;10909;53.590;10.054;2022-12-29T07:11:54;13.10;84.40
21495;DHT22;10909;53.590;10.054;2022-12-29T07:14:20;13.10;84.30
21495;DHT22;10909;53.590;10.054;2022-12-29T07:16:45;13.10;84.40
21495;DHT22;10909;53.590;10.054;2022-12-29T07:19:11;13.10;84.40
21495;DHT22;10909;53.590;10.054;2022-12-29T07:21:37;13.10;84.40
21495;DHT22;10909;53.590;10.054;2022-12-29T07:24:02;13.10;84.40
21495;DHT22;10909;53.590;10.054;2022-12-29T07:26:28;13.10;84.40
21495;DHT22;10909;53.590;10.054;2022-12-29T07:28:54;13.10;84.50
21495;DHT22;10909;53.590;10.054;2022-12-29T07:31:21;13.10;84.50
21495;DHT22;10909;53.590;10.054;2022-12-29T07:33:48;13.10;84.50
21495;DHT22;10909;53.590;10.054;2022-12-29T07:36:14;13.10;84.50
21495;DHT22;10909;53.590;10.054;2022-12-29T07:38:41;13.10;84.50
21495;DHT22;10909;53.590;10.054;2022-12-29T07:41:06;13.10;84.50
21495;DHT22;10909;53.590;10.054;2022-12-29T07:43:33;13.10;84.60
21495;DHT22;10909;53.590;10.054;2022-12-29T07:45:58;13.10;84.70
21495;DHT22;10909;53.590;10.054;2022-12-29T07:48:24;13.20;84.50
21495;DHT22;10909;53.590;10.054;2022-12-29T07:50:50;13.10;84.50
21495;DHT22;10909;53.590;10.054;2022-12-29T07:53:17;13.20;84.40
21495;DHT22;10909;53.590;10.054;2022-12-29T07:55:43;13.20;84.40
21495;DHT22;10909;53.590;10.054;2022-12-29T07:58:09;13.20;84.30
21495;DHT22;10909;53.590;10.054;2022-12-29T08:00:34;13.20;84.20
21495;DHT22;10909;53.590;10.054;2022-12-29T08:03:02;13.20;84.10
21495;DHT22;10909;53.590;10.054;2022-12-29T08:05:27;13.20;84.10
21495;DHT22;10909;53.590;10.054;2022-12-29T08:07:53;13.20;84.10
21495;DHT22;10909;53.590;10.054;2022-12-29T08:10:19;13.20;84.00
21495;DHT22;10909;53.590;10.054;2022-12-29T08:12:45;13.20;84.00
21495;DHT22;10909;53.590;10.054;2022-12-29T08:15:12;13.20;83.90
21495;DHT22;10909;53.590;10.054;2022-12-29T08:17:38;13.20;83.90
21495;DHT22;10909;53.590;10.054;2022-12-29T08:20:04;13.10;83.70
21495;DHT22;10909;53.590;10.054;2022-12-29T08:22:30;13.10;83.70
21495;DHT22;10909;53.590;10.054;2022-12-29T08:24:56;13.10;83.60
21495;DHT22;10909;53.590;10.054;2022-12-29T08:27:21;13.10;83.60
21495;DHT22;10909;53.590;10.054;2022-12-29T08:29:47;13.10;83.70
21495;DHT22;10909;53.590;10.054;2022-12-29T08:32:13;13.00;83.60
21495;DHT22;10909;53.590;10.054;2022-12-29T08:34:39;13.00;83.80
21495;DHT22;10909;53.590;10.054;2022-12-29T08:37:05;13.00;83.80
21495;DHT22;10909;53.590;10.054;2022-12-29T08:39:31;13.00;83.90
21495;DHT22;10909;53.590;10.054;2022-12-29T08:41:56;13.00;84.00
21495;DHT22;10909;53.590;10.054;2022-12-29T08:44:22;13.00;84.00
21495;DHT22;10909;53.590;10.054;2022-12-29T08:46:48;13.00;84.20
21495;DHT22;10909;53.590;10.054;2022-12-29T08:49:13;13.00;84.30
21495;DHT22;10909;53.590;10.054;2022-12-29T08:51:39;13.10;84.50
21495;DHT22;10909;53.590;10.054;2022-12-29T08:54:06;13.10;84.40
21495;DHT22;10909;53.590;10.054;2022-12-29T08:56:31;13.10;84.30
21495;DHT22;10909;53.590;10.054;2022-12-29T08:58:57;13.20;84.40
21495;DHT22;10909;53.590;10.054;2022-12-29T09:01:23;13.20;84.10
21495;DHT22;10909;53.590;10.054;2022-12-29T09:03:49;13.20;84.20
21495;DHT22;10909;53.590;10.054;2022-12-29T09:06:17;13.20;84.20
21495;DHT22;10909;53.590;10.054;2022-12-29T09:08:44;13.20;83.80
21495;DHT22;10909;53.590;10.054;2022-12-29T09:11:16;13.30;83.80
21495;DHT22;10909;53.590;10.054;2022-12-29T09:13:42;13.30;83.60
21495;DHT22;10909;53.590;10.054;2022-12-29T09:16:08;13.30;83.30
21495;DHT22;10909;53.590;10.054;2022-12-29T09:18:34;13.30;83.30
21495;DHT22;10909;53.590;10.054;2022-12-29T09:21:02;13.30;83.10
21495;DHT22;10909;53.590;10.054;2022-12-29T09:23:29;13.30;83.30
21495;DHT22;10909;53.590;10.054;2022-12-29T09:25:54;13.30;84.10
21495;DHT22;10909;53.590;10.054;2022-12-29T09:28:21;13.40;82.50
21495;DHT22;10909;53.590;10.054;2022-12-29T09:30:47;13.40;82.90
21495;DHT22;10909;53.590;10.054;2022-12-29T09:33:13;13.40;82.80
21495;DHT22;10909;53.590;10.054;2022-12-29T09:35:50;13.40;82.80
21495;DHT22;10909;53.590;10.054;2022-12-29T09:38:16;13.50;82.50
21495;DHT22;10909;53.590;10.054;2022-12-29T09:40:44;13.50;82.40
21495;DHT22;10909;53.590;10.054;2022-12-29T09:43:24;13.50;82.00
21495;DHT22;10909;53.590;10.054;2022-12-29T09:45:57;13.50;81.60
21495;DHT22;10909;53.590;10.054;2022-12-29T09:48:31;13.50;81.90
21495;DHT22;10909;53.590;10.054;2022-12-29T09:51:05;13.50;81.70
21495;DHT22;10909;53.590;10.054;2022-12-29T09:53:42;13.50;81.80
21495;DHT22;10909;53.590;10.054;2022-12-29T09:56:21;13.60;81.90
21495;DHT22;10909;53.590;10.054;2022-12-29T09:58:57;13.60;81.60
21495;DHT22;10909;53.590;10.054;2022-12-29T10:01:32;13.60;81.40
21495;DHT22;10909;53.590;10.054;2022-12-29T10:04:01;13.60;81.10
21495;DHT22;10909;53.590;10.054;2022-12-29T10:07:26;13.60;81.60
21495;DHT22;10909;53.590;10.054;2022-12-29T10:09:38;13.60;81.30
21495;DHT22;10909;53.590;10.054;2022-12-29T10:17:48;13.70;80.40
21495;DHT22;10909;53.590;10.054;2022-12-29T10:20:23;13.70;79.90
21495;DHT22;10909;53.590;10.054;2022-12-29T10:23:31;13.70;79.80
21495;DHT22;10909;53.590;10.054;2022-12-29T10:26:01;13.80;79.20
21495;DHT22;10909;53.590;10.054;2022-12-29T10:28:38;13.70;79.70
21495;DHT22;10909;53.590;10.054;2022-12-29T10:31:12;13.70;79.70
21495;DHT22;10909;53.590;10.054;2022-12-29T10:33:41;13.80;79.00
21495;DHT22;10909;53.590;10.054;2022-12-29T10:36:27;13.70;78.80
21495;DHT22;10909;53.590;10.054;2022-12-29T10:41:55;13.70;77.90
21495;DHT22;10909;53.590;10.054;2022-12-29T10:44:23;13.70;78.20
21495;DHT22;10909;53.590;10.054;2022-12-29T10:47:09;13.70;78.50
21495;DHT22;10909;53.590;10.054;2022-12-29T10:49:40;13.80;77.70
21495;DHT22;10909;53.590;10.054;2022-12-29T10:52:07;13.80;78.40
21495;DHT22;10909;53.590;10.054;2022-12-29T10:54:42;13.80;78.50
21495;DHT22;10909;53.590;10.054;2022-12-29T10:57:21;13.80;77.30
21495;DHT22;10909;53.590;10.054;2022-12-29T10:59:49;13.80;77.50
21495;DHT22;10909;53.590;10.054;2022-12-29T11:02:57;13.90;78.00
21495;DHT22;10909;53.590;10.054;2022-12-29T11:05:49;13.90;76.10
21495;DHT22;10909;53.590;10.054;2022-12-29T11:08:21;13.90;76.10
21495;DHT22;10909;53.590;10.054;2022-12-29T11:11:04;13.90;76.30
21495;DHT22;10909;53.590;10.054;2022-12-29T11:13:46;13.90;76.60
21495;DHT22;10909;53.590;10.054;2022-12-29T11:16:12;13.90;77.00
21495;DHT22;10909;53.590;10.054;2022-12-29T11:18:39;13.90;76.50
21495;DHT22;10909;53.590;10.054;2022-12-29T11:21:09;13.90;76.10
21495;DHT22;10909;53.590;10.054;2022-12-29T11:24:00;13.90;76.50
21495;DHT22;10909;53.590;10.054;2022-12-29T11:26:27;13.90;76.60
21495;DHT22;10909;53.590;10.054;2022-12-29T11:31:41;13.90;76.00
21495;DHT22;10909;53.590;10.054;2022-12-29T11:34:08;13.90;76.30
21495;DHT22;10909;53.590;10.054;2022-12-29T11:36:34;13.90;76.70
21495;DHT22;10909;53.590;10.054;2022-12-29T11:39:01;13.90;76.60
21495;DHT22;10909;53.590;10.054;2022-12-29T11:41:29;13.90;76.60
21495;DHT22;10909;53.590;10.054;2022-12-29T11:43:58;14.00;76.50
21495;DHT22;10909;53.590;10.054;2022-12-29T11:46:30;14.00;75.80
21495;DHT22;10909;53.590;10.054;2022-12-29T11:48:58;14.00;75.70
21495;DHT22;10909;53.590;10.054;2022-12-29T11:51:44;14.00;76.00
21495;DHT22;10909;53.590;10.054;2022-12-29T11:54:27;14.00;75.30
21495;DHT22;10909;53.590;10.054;2022-12-29T11:56:55;14.00;74.80
21495;DHT22;10909;53.590;10.054;2022-12-29T12:01:57;14.00;74.80
21495;DHT22;10909;53.590;10.054;2022-12-29T12:04:27;14.00;74.20
21495;DHT22;10909;53.590;10.054;2022-12-29T12:07:01;14.00;74.70
21495;DHT22;10909;53.590;10.054;2022-12-29T12:09:50;14.00;74.60
21495;DHT22;10909;53.590;10.054;2022-12-29T12:12:28;14.00;74.10
21495;DHT22;10909;53.590;10.054;2022-12-29T12:14:56;14.00;74.00
21495;DHT22;10909;53.590;10.054;2022-12-29T12:17:49;14.00;75.10
21495;DHT22;10909;53.590;10.054;2022-12-29T12:20:30;14.00;74.70
21495;DHT22;10909;53.590;10.054;2022-12-29T12:26:21;13.90;74.80
21495;DHT22;10909;53.590;10.054;2022-12-29T12:29:14;13.90;74.80
21495;DHT22;10909;53.590;10.054;2022-12-29T12:32:09;13.80;75.10
21495;DHT22;10909;53.590;10.054;2022-12-29T12:34:39;13.90;74.70
21495;DHT22;10909;53.590;10.054;2022-12-29T12:59:09;13.70;75.50
21495;DHT22;10909;53.590;10.054;2022-12-29T13:04:38;13.70;76.00
21495;DHT22;10909;53.590;10.054;2022-12-29T13:10:04;13.70;75.60
21495;DHT22;10909;53.590;10.054;2022-12-29T13:12:52;13.70;75.60
21495;DHT22;10909;53.590;10.054;2022-12-29T13:15:42;13.70;75.80
21495;DHT22;10909;53.590;10.054;2022-12-29T13:21:39;13.70;74.80
21495;DHT22;10909;53.590;10.054;2022-12-29T13:24:26;13.70;74.50
21495;DHT22;10909;53.590;10.054;2022-12-29T13:27:14;13.70;74.30
21495;DHT22;10909;53.590;10.054;2022-12-29T13:30:03;13.60;74.50
21495;DHT22;10909;53.590;10.054;2022-12-29T13:37:27;13.30;74.40
21495;DHT22;10909;53.590;10.054;2022-12-29T13:40:03;13.20;74.90
21495;DHT22;10909;53.590;10.054;2022-12-29T13:42:35;13.10;75.30
21495;DHT22;10909;53.590;10.054;2022-12-29T13:45:06;13.00;75.50
21495;DHT22;10909;53.590;10.054;2022-12-29T13:47:57;13.00;75.70
21495;DHT22;10909;53.590;10.054;2022-12-29T13:50:28;12.90;76.00
21495;DHT22;10909;53.590;10.054;2022-12-29T13:55:55;12.80;76.70
21495;DHT22;10909;53.590;10.054;2022-12-29T14:03:52;12.70;77.20
21495;DHT22;10909;53.590;10.054;2022-12-29T14:08:54;12.60;77.30
21495;DHT22;10909;53.590;10.054;2022-12-29T14:11:23;12.50;77.30
21495;DHT22;10909;53.590;10.054;2022-12-29T14:13:50;12.50;77.60
21495;DHT22;10909;53.590;10.054;2022-12-29T14:16:33;12.40;76.50
21495;DHT22;10909;53.590;10.054;2022-12-29T14:19:13;12.20;76.30
21495;DHT22;10909;53.590;10.054;2022-12-29T14:21:40;12.00;76.30
21495;DHT22;10909;53.590;10.054;2022-12-29T14:24:37;11.70;76.70
21495;DHT22;10909;53.590;10.054;2022-12-29T14:34:59;11.00;79.20
21495;DHT22;10909;53.590;10.054;2022-12-29T14:37:26;10.90;79.20
21495;DHT22;10909;53.590;10.054;2022-12-29T14:42:29;10.80;80.10
21495;DHT22;10909;53.590;10.054;2022-12-29T14:47:43;10.70;80.70
21495;DHT22;10909;53.590;10.054;2022-12-29T14:50:18;10.70;80.70
21495;DHT22;10909;53.590;10.054;2022-12-29T14:52:47;10.70;81.10
21495;DHT22;10909;53.590;10.054;2022-12-29T14:57:44;10.70;81.30
21495;DHT22;10909;53.590;10.054;2022-12-29T15:00:18;10.70;81.40
21495;DHT22;10909;53.590;10.054;2022-12-29T15:02:48;10.70;81.30
21495;DHT22;10909;53.590;10.054;2022-12-29T15:05:36;10.70;81.30
21495;DHT22;10909;53.590;10.054;2022-12-29T15:08:06;10.70;81.50
21495;DHT22;10909;53.590;10.054;2022-12-29T15:10:43;10.70;81.40
21495;DHT22;10909;53.590;10.054;2022-12-29T15:13:23;10.70;81.60
21495;DHT22;10909;53.590;10.054;2022-12-29T15:15:51;10.80;81.90
21495;DHT22;10909;53.590;10.054;2022-12-29T15:18:32;10.70;81.70
21495;DHT22;10909;53.590;10.054;2022-12-29T15:21:05;10.80;81.90
21495;DHT22;10909;53.590;10.054;2022-12-29T15:23:33;10.80;81.90
21495;DHT22;10909;53.590;10.054;2022-12-29T15:26:03;10.80;82.00
21495;DHT22;10909;53.590;10.054;2022-12-29T15:28:41;10.80;82.10
21495;DHT22;10909;53.590;10.054;2022-12-29T15:33:46;10.90;82.20
21495;DHT22;10909;53.590;10.054;2022-12-29T15:36:36;10.90;82.30
21495;DHT22;10909;53.590;10.054;2022-12-29T15:39:26;11.00;82.50
21495;DHT22;10909;53.590;10.054;2022-12-29T15:41:56;11.00;82.40
21495;DHT22;10909;53.590;10.054;2022-12-29T15:46:52;11.00;82.40
21495;DHT22;10909;53.590;10.054;2022-12-29T15:49:18;11.10;82.50
21495;DHT22;10909;53.590;10.054;2022-12-29T15:51:44;11.10;82.50
21495;DHT22;10909;53.590;10.054;2022-12-29T15:54:19;11.20;83.20
21495;DHT22;10909;53.590;10.054;2022-12-29T15:56:46;11.20;82.50
21495;DHT22;10909;53.590;10.054;2022-12-29T15:59:31;11.20;82.40
21495;DHT22;10909;53.590;10.054;2022-12-29T16:01:59;11.20;82.30
21495;DHT22;10909;53.590;10.054;2022-12-29T16:04:30;11.20;82.20
21495;DHT22;10909;53.590;10.054;2022-12-29T16:07:03;11.20;82.00
21495;DHT22;10909;53.590;10.054;2022-12-29T16:09:31;11.20;82.00
21495;DHT22;10909;53.590;10.054;2022-12-29T16:12:00;11.20;81.90
21495;DHT22;10909;53.590;10.054;2022-12-29T16:14:37;11.20;81.80
21495;DHT22;10909;53.590;10.054;2022-12-29T16:17:05;11.20;81.80
21495;DHT22;10909;53.590;10.054;2022-12-29T16:19:37;11.20;81.80
21495;DHT22;10909;53.590;10.054;2022-12-29T16:22:14;11.20;81.80
21495;DHT22;10909;53.590;10.054;2022-12-29T16:24:41;11.20;81.90
21495;DHT22;10909;53.590;10.054;2022-12-29T16:27:19;11.10;81.70
21495;DHT22;10909;53.590;10.054;2022-12-29T16:29:52;11.10;81.80
21495;DHT22;10909;53.590;10.054;2022-12-29T16:35:17;11.10;81.80
21495;DHT22;10909;53.590;10.054;2022-12-29T16:37:44;11.10;81.80
21495;DHT22;10909;53.590;10.054;2022-12-29T16:40:32;11.10;81.90
21495;DHT22;10909;53.590;10.054;2022-12-29T16:43:02;11.10;81.90
21495;DHT22;10909;53.590;10.054;2022-12-29T16:50:43;11.20;82.10
21495;DHT22;10909;53.590;10.054;2022-12-29T16:53:39;11.20;82.10
21495;DHT22;10909;53.590;10.054;2022-12-29T16:56:16;11.20;82.00
21495;DHT22;10909;53.590;10.054;2022-12-29T16:59:07;11.20;81.90
21495;DHT22;10909;53.590;10.054;2022-12-29T17:01:38;11.20;82.00
21495;DHT22;10909;53.590;10.054;2022-12-29T17:04:12;11.20;82.00
21495;DHT22;10909;53.590;10.054;2022-12-29T17:06:39;11.20;82.10
21495;DHT22;10909;53.590;10.054;2022-12-29T17:09:18;11.20;83.00
21495;DHT22;10909;53.590;10.054;2022-12-29T17:11:47;11.30;82.20
21495;DHT22;10909;53.590;10.054;2022-12-29T17:17:32;11.30;82.30
21495;DHT22;10909;53.590;10.054;2022-12-29T17:20:13;11.30;82.20
21495;DHT22;10909;53.590;10.054;2022-12-29T17:22:39;11.40;82.20
21495;DHT22;10909;53.590;10.054;2022-12-29T17:25:05;11.40;82.10
21495;DHT22;10909;53.590;10.054;2022-12-29T17:27:37;11.40;82.00
21495;DHT22;10909;53.590;10.054;2022-12-29T17:30:18;11.40;82.00
21495;DHT22;10909;53.590;10.054;2022-12-29T17:32:50;11.40;81.90
21495;DHT22;10909;53.590;10.054;2022-12-29T17:35:18;11.40;81.90
21495;DHT22;10909;53.590;10.054;2022-12-29T17:37:45;11.40;81.70
21495;DHT22;10909;53.590;10.054;2022-12-29T17:40:23;11.40;81.90
21495;DHT22;10909;53.590;10.054;2022-12-29T17:42:51;11.40;81.90
21495;DHT22;10909;53.590;10.054;2022-12-29T17:45:20;11.40;82.00
21495;DHT22;10909;53.590;10.054;2022-12-29T17:47:47;11.40;82.10
21495;DHT22;10909;53.590;10.054;2022-12-29T17:50:18;11.50;82.20
21495;DHT22;10909;53.590;10.054;2022-12-29T17:52:49;11.50;82.20
21495;DHT22;10909;53.590;10.054;2022-12-29T17:55:18;11.50;82.20